sensor_id;sensor_type;location;lat;lon;timestamp;P1;durP1;ratioP1;P2;durP2;ratioP2
38226;SDS011;24026;49.446;8.576;2023-05-29T00:00:58;147.20;;;134.40;;
38226;SDS011;24026;49.446;8.576;2023-05-29T00:03:19;146.00;;;133.25;;
38226;SDS011;24026;49.446;8.576;2023-05-29T00:05:40;146.20;;;133.45;;
38226;SDS011;24026;49.446;8.576;2023-05-29T00:08:00;146.70;;;133.85;;
38226;SDS011;24026;49.446;8.576;2023-05-29T00:10:21;146.40;;;133.48;;
38226;SDS011;24026;49.446;8.576;2023-05-29T00:12:41;146.43;;;133.57;;
38226;SDS011;24026;49.446;8.576;2023-05-29T00:15:02;146.95;;;134.13;;
38226;SDS011;24026;49.446;8.576;2023-05-29T00:17:25;146.63;;;133.85;;
38226;SDS011;24026;49.446;8.576;2023-05-29T00:19:46;147.07;;;134.25;;
38226;SDS011;24026;49.446;8.576;2023-05-29T00:22:06;147.52;;;134.63;;
38226;SDS011;24026;49.446;8.576;2023-05-29T00:24:27;148.15;;;135.20;;
38226;SDS011;24026;49.446;8.576;2023-05-29T00:26:47;146.13;;;133.30;;
38226;SDS011;24026;49.446;8.576;2023-05-29T00:29:07;148.55;;;135.63;;
38226;SDS011;24026;49.446;8.576;2023-05-29T00:31:28;146.80;;;133.95;;
38226;SDS011;24026;49.446;8.576;2023-05-29T00:33:48;146.77;;;133.95;;
38226;SDS011;24026;49.446;8.576;2023-05-29T00:36:09;146.93;;;133.95;;
38226;SDS011;24026;49.446;8.576;2023-05-29T00:38:30;146.57;;;133.73;;
38226;SDS011;24026;49.446;8.576;2023-05-29T00:40:50;146.50;;;133.75;;
38226;SDS011;24026;49.446;8.576;2023-05-29T00:43:11;146.85;;;134.05;;
38226;SDS011;24026;49.446;8.576;2023-05-29T00:45:31;145.35;;;132.57;;
38226;SDS011;24026;49.446;8.576;2023-05-29T00:47:56;145.52;;;132.73;;
38226;SDS011;24026;49.446;8.576;2023-05-29T00:50:19;148.18;;;135.07;;
38226;SDS011;24026;49.446;8.576;2023-05-29T00:52:41;146.43;;;133.68;;
38226;SDS011;24026;49.446;8.576;2023-05-29T00:55:04;145.40;;;132.70;;
38226;SDS011;24026;49.446;8.576;2023-05-29T00:57:25;145.55;;;132.85;;
38226;SDS011;24026;49.446;8.576;2023-05-29T00:59:45;145.75;;;133.02;;
38226;SDS011;24026;49.446;8.576;2023-05-29T01:02:07;146.07;;;133.10;;
38226;SDS011;24026;49.446;8.576;2023-05-29T01:04:27;146.10;;;133.23;;
38226;SDS011;24026;49.446;8.576;2023-05-29T01:06:48;145.88;;;133.05;;
38226;SDS011;24026;49.446;8.576;2023-05-29T01:09:09;144.43;;;131.70;;
38226;SDS011;24026;49.446;8.576;2023-05-29T01:14:02;145.75;;;132.93;;
38226;SDS011;24026;49.446;8.576;2023-05-29T01:21:26;144.80;;;132.10;;
38226;SDS011;24026;49.446;8.576;2023-05-29T01:24:02;145.73;;;132.90;;
38226;SDS011;24026;49.446;8.576;2023-05-29T01:29:19;144.60;;;131.82;;
38226;SDS011;24026;49.446;8.576;2023-05-29T01:31:43;145.10;;;132.27;;
38226;SDS011;24026;49.446;8.576;2023-05-29T01:34:05;144.73;;;131.93;;
38226;SDS011;24026;49.446;8.576;2023-05-29T01:36:26;143.80;;;131.10;;
38226;SDS011;24026;49.446;8.576;2023-05-29T01:38:47;144.68;;;131.98;;
38226;SDS011;24026;49.446;8.576;2023-05-29T01:41:09;144.45;;;131.73;;
38226;SDS011;24026;49.446;8.576;2023-05-29T01:43:30;143.85;;;131.25;;
38226;SDS011;24026;49.446;8.576;2023-05-29T01:45:51;145.45;;;132.65;;
38226;SDS011;24026;49.446;8.576;2023-05-29T01:48:12;144.55;;;131.82;;
38226;SDS011;24026;49.446;8.576;2023-05-29T01:50:32;146.10;;;133.27;;
38226;SDS011;24026;49.446;8.576;2023-05-29T01:52:54;144.75;;;131.85;;
38226;SDS011;24026;49.446;8.576;2023-05-29T01:55:14;144.63;;;131.88;;
38226;SDS011;24026;49.446;8.576;2023-05-29T01:57:35;145.00;;;132.13;;
38226;SDS011;24026;49.446;8.576;2023-05-29T01:59:57;143.60;;;130.93;;
38226;SDS011;24026;49.446;8.576;2023-05-29T02:02:17;144.35;;;131.68;;
38226;SDS011;24026;49.446;8.576;2023-05-29T02:04:37;144.82;;;132.07;;
38226;SDS011;24026;49.446;8.576;2023-05-29T02:06:58;142.57;;;129.93;;
38226;SDS011;24026;49.446;8.576;2023-05-29T02:09:19;144.65;;;131.75;;
38226;SDS011;24026;49.446;8.576;2023-05-29T02:11:40;144.40;;;131.50;;
38226;SDS011;24026;49.446;8.576;2023-05-29T02:14:05;143.57;;;130.95;;
38226;SDS011;24026;49.446;8.576;2023-05-29T02:16:25;143.73;;;130.85;;
38226;SDS011;24026;49.446;8.576;2023-05-29T02:18:47;143.63;;;130.95;;
38226;SDS011;24026;49.446;8.576;2023-05-29T02:21:08;144.25;;;131.40;;
38226;SDS011;24026;49.446;8.576;2023-05-29T02:23:28;146.15;;;133.27;;
38226;SDS011;24026;49.446;8.576;2023-05-29T02:25:49;144.98;;;132.02;;
38226;SDS011;24026;49.446;8.576;2023-05-29T02:28:09;144.50;;;131.75;;
38226;SDS011;24026;49.446;8.576;2023-05-29T02:30:30;144.35;;;131.52;;
38226;SDS011;24026;49.446;8.576;2023-05-29T02:32:50;143.60;;;130.93;;
38226;SDS011;24026;49.446;8.576;2023-05-29T02:35:11;142.82;;;130.13;;
38226;SDS011;24026;49.446;8.576;2023-05-29T02:37:33;143.32;;;130.52;;
38226;SDS011;24026;49.446;8.576;2023-05-29T02:39:53;144.70;;;131.93;;
38226;SDS011;24026;49.446;8.576;2023-05-29T02:42:14;144.23;;;131.43;;
38226;SDS011;24026;49.446;8.576;2023-05-29T02:44:35;143.38;;;130.63;;
38226;SDS011;24026;49.446;8.576;2023-05-29T02:46:55;144.05;;;131.27;;
38226;SDS011;24026;49.446;8.576;2023-05-29T02:49:15;143.60;;;130.90;;
38226;SDS011;24026;49.446;8.576;2023-05-29T02:51:36;144.70;;;131.88;;
38226;SDS011;24026;49.446;8.576;2023-05-29T02:53:57;143.77;;;131.00;;
38226;SDS011;24026;49.446;8.576;2023-05-29T02:56:17;144.00;;;131.20;;
38226;SDS011;24026;49.446;8.576;2023-05-29T02:58:37;143.40;;;130.70;;
38226;SDS011;24026;49.446;8.576;2023-05-29T03:00:58;144.65;;;131.65;;
38226;SDS011;24026;49.446;8.576;2023-05-29T03:03:20;143.82;;;131.02;;
38226;SDS011;24026;49.446;8.576;2023-05-29T03:05:40;143.02;;;130.32;;
38226;SDS011;24026;49.446;8.576;2023-05-29T03:08:00;144.05;;;131.30;;
38226;SDS011;24026;49.446;8.576;2023-05-29T03:10:21;143.75;;;131.05;;
38226;SDS011;24026;49.446;8.576;2023-05-29T03:12:42;143.85;;;131.15;;
38226;SDS011;24026;49.446;8.576;2023-05-29T03:15:03;143.73;;;130.95;;
38226;SDS011;24026;49.446;8.576;2023-05-29T03:17:25;142.55;;;129.85;;
38226;SDS011;24026;49.446;8.576;2023-05-29T03:19:45;143.40;;;130.60;;
38226;SDS011;24026;49.446;8.576;2023-05-29T03:22:06;145.75;;;132.82;;
38226;SDS011;24026;49.446;8.576;2023-05-29T03:24:26;143.75;;;130.95;;
38226;SDS011;24026;49.446;8.576;2023-05-29T03:26:47;144.15;;;131.35;;
38226;SDS011;24026;49.446;8.576;2023-05-29T03:29:07;143.18;;;130.43;;
38226;SDS011;24026;49.446;8.576;2023-05-29T03:31:28;142.55;;;129.85;;
38226;SDS011;24026;49.446;8.576;2023-05-29T03:33:48;144.38;;;131.50;;
38226;SDS011;24026;49.446;8.576;2023-05-29T03:36:09;143.70;;;130.70;;
38226;SDS011;24026;49.446;8.576;2023-05-29T03:38:30;142.88;;;130.15;;
38226;SDS011;24026;49.446;8.576;2023-05-29T03:40:51;141.45;;;128.90;;
38226;SDS011;24026;49.446;8.576;2023-05-29T03:43:11;143.07;;;130.35;;
38226;SDS011;24026;49.446;8.576;2023-05-29T03:45:31;142.20;;;129.48;;
38226;SDS011;24026;49.446;8.576;2023-05-29T03:47:52;142.18;;;129.50;;
38226;SDS011;24026;49.446;8.576;2023-05-29T03:50:12;142.45;;;129.75;;
38226;SDS011;24026;49.446;8.576;2023-05-29T03:52:35;143.35;;;130.52;;
38226;SDS011;24026;49.446;8.576;2023-05-29T03:54:55;141.40;;;128.80;;
38226;SDS011;24026;49.446;8.576;2023-05-29T03:57:15;142.60;;;129.73;;
38226;SDS011;24026;49.446;8.576;2023-05-29T03:59:36;142.35;;;129.55;;
38226;SDS011;24026;49.446;8.576;2023-05-29T04:01:56;141.60;;;128.90;;
38226;SDS011;24026;49.446;8.576;2023-05-29T04:04:17;142.23;;;129.52;;
38226;SDS011;24026;49.446;8.576;2023-05-29T04:06:37;140.73;;;128.07;;
38226;SDS011;24026;49.446;8.576;2023-05-29T04:08:58;142.48;;;129.77;;
38226;SDS011;24026;49.446;8.576;2023-05-29T04:11:19;141.75;;;129.10;;
38226;SDS011;24026;49.446;8.576;2023-05-29T04:13:42;141.75;;;129.10;;
38226;SDS011;24026;49.446;8.576;2023-05-29T04:16:03;141.68;;;128.98;;
38226;SDS011;24026;49.446;8.576;2023-05-29T04:18:23;143.18;;;130.38;;
38226;SDS011;24026;49.446;8.576;2023-05-29T04:20:45;141.02;;;128.43;;
38226;SDS011;24026;49.446;8.576;2023-05-29T04:23:07;140.90;;;128.25;;
38226;SDS011;24026;49.446;8.576;2023-05-29T04:25:27;142.20;;;129.52;;
38226;SDS011;24026;49.446;8.576;2023-05-29T04:27:48;141.32;;;128.40;;
38226;SDS011;24026;49.446;8.576;2023-05-29T04:30:11;141.00;;;128.40;;
38226;SDS011;24026;49.446;8.576;2023-05-29T04:32:31;140.32;;;127.80;;
38226;SDS011;24026;49.446;8.576;2023-05-29T04:34:52;140.98;;;128.32;;
38226;SDS011;24026;49.446;8.576;2023-05-29T04:37:13;141.88;;;129.18;;
38226;SDS011;24026;49.446;8.576;2023-05-29T04:39:33;142.27;;;129.38;;
38226;SDS011;24026;49.446;8.576;2023-05-29T04:41:54;141.10;;;128.52;;
38226;SDS011;24026;49.446;8.576;2023-05-29T04:44:14;141.40;;;128.73;;
38226;SDS011;24026;49.446;8.576;2023-05-29T04:46:35;141.75;;;128.98;;
38226;SDS011;24026;49.446;8.576;2023-05-29T04:48:55;141.43;;;128.75;;
38226;SDS011;24026;49.446;8.576;2023-05-29T04:51:16;140.93;;;128.35;;
38226;SDS011;24026;49.446;8.576;2023-05-29T04:53:40;142.98;;;130.20;;
38226;SDS011;24026;49.446;8.576;2023-05-29T04:56:01;141.40;;;128.75;;
38226;SDS011;24026;49.446;8.576;2023-05-29T04:58:21;140.77;;;128.13;;
38226;SDS011;24026;49.446;8.576;2023-05-29T05:00:41;141.25;;;128.57;;
38226;SDS011;24026;49.446;8.576;2023-05-29T05:03:03;139.95;;;127.43;;
38226;SDS011;24026;49.446;8.576;2023-05-29T05:05:23;141.27;;;128.57;;
38226;SDS011;24026;49.446;8.576;2023-05-29T05:07:44;140.88;;;128.27;;
38226;SDS011;24026;49.446;8.576;2023-05-29T05:10:04;141.60;;;128.90;;
38226;SDS011;24026;49.446;8.576;2023-05-29T05:12:26;142.32;;;129.60;;
38226;SDS011;24026;49.446;8.576;2023-05-29T05:14:46;141.73;;;129.07;;
38226;SDS011;24026;49.446;8.576;2023-05-29T05:17:07;141.93;;;129.13;;
38226;SDS011;24026;49.446;8.576;2023-05-29T05:19:27;141.15;;;128.55;;
38226;SDS011;24026;49.446;8.576;2023-05-29T05:21:47;142.75;;;130.02;;
38226;SDS011;24026;49.446;8.576;2023-05-29T05:24:08;141.73;;;129.00;;
38226;SDS011;24026;49.446;8.576;2023-05-29T05:26:28;141.95;;;129.25;;
38226;SDS011;24026;49.446;8.576;2023-05-29T05:28:48;140.90;;;128.27;;
38226;SDS011;24026;49.446;8.576;2023-05-29T05:31:09;140.77;;;128.15;;
38226;SDS011;24026;49.446;8.576;2023-05-29T05:33:29;141.13;;;128.52;;
38226;SDS011;24026;49.446;8.576;2023-05-29T05:35:49;141.10;;;128.43;;
38226;SDS011;24026;49.446;8.576;2023-05-29T05:38:10;141.73;;;128.98;;
38226;SDS011;24026;49.446;8.576;2023-05-29T05:40:30;140.70;;;128.02;;
38226;SDS011;24026;49.446;8.576;2023-05-29T05:42:51;143.40;;;130.55;;
38226;SDS011;24026;49.446;8.576;2023-05-29T05:45:11;142.13;;;129.40;;
38226;SDS011;24026;49.446;8.576;2023-05-29T05:47:32;142.20;;;129.45;;
38226;SDS011;24026;49.446;8.576;2023-05-29T05:49:52;141.75;;;129.05;;
38226;SDS011;24026;49.446;8.576;2023-05-29T05:52:13;140.57;;;128.02;;
38226;SDS011;24026;49.446;8.576;2023-05-29T05:54:34;141.00;;;128.43;;
38226;SDS011;24026;49.446;8.576;2023-05-29T05:56:54;139.95;;;127.43;;
38226;SDS011;24026;49.446;8.576;2023-05-29T05:59:14;141.48;;;128.73;;
38226;SDS011;24026;49.446;8.576;2023-05-29T06:01:35;140.73;;;128.15;;
38226;SDS011;24026;49.446;8.576;2023-05-29T06:03:56;141.63;;;128.98;;
38226;SDS011;24026;49.446;8.576;2023-05-29T06:06:16;141.45;;;128.90;;
38226;SDS011;24026;49.446;8.576;2023-05-29T06:08:38;142.57;;;129.75;;
38226;SDS011;24026;49.446;8.576;2023-05-29T06:11:00;142.65;;;129.95;;
38226;SDS011;24026;49.446;8.576;2023-05-29T06:13:20;142.55;;;129.85;;
38226;SDS011;24026;49.446;8.576;2023-05-29T06:15:41;142.65;;;130.00;;
38226;SDS011;24026;49.446;8.576;2023-05-29T06:18:01;144.43;;;131.73;;
38226;SDS011;24026;49.446;8.576;2023-05-29T06:20:22;142.20;;;129.60;;
38226;SDS011;24026;49.446;8.576;2023-05-29T06:22:43;143.63;;;130.85;;
38226;SDS011;24026;49.446;8.576;2023-05-29T06:25:03;141.73;;;129.07;;
38226;SDS011;24026;49.446;8.576;2023-05-29T06:27:24;143.10;;;130.40;;
38226;SDS011;24026;49.446;8.576;2023-05-29T06:29:47;143.10;;;130.40;;
38226;SDS011;24026;49.446;8.576;2023-05-29T06:32:07;142.63;;;130.05;;
38226;SDS011;24026;49.446;8.576;2023-05-29T06:34:27;142.45;;;129.90;;
38226;SDS011;24026;49.446;8.576;2023-05-29T06:36:48;141.90;;;129.27;;
38226;SDS011;24026;49.446;8.576;2023-05-29T06:39:08;143.25;;;130.57;;
38226;SDS011;24026;49.446;8.576;2023-05-29T06:41:30;142.25;;;129.65;;
38226;SDS011;24026;49.446;8.576;2023-05-29T06:43:50;142.60;;;129.95;;
38226;SDS011;24026;49.446;8.576;2023-05-29T06:46:11;143.02;;;130.43;;
38226;SDS011;24026;49.446;8.576;2023-05-29T06:48:33;142.95;;;130.30;;
38226;SDS011;24026;49.446;8.576;2023-05-29T06:50:54;143.23;;;130.52;;
38226;SDS011;24026;49.446;8.576;2023-05-29T06:53:15;143.02;;;130.43;;
38226;SDS011;24026;49.446;8.576;2023-05-29T06:55:35;143.38;;;130.77;;
38226;SDS011;24026;49.446;8.576;2023-05-29T06:57:55;142.73;;;130.18;;
38226;SDS011;24026;49.446;8.576;2023-05-29T07:00:16;143.20;;;130.60;;
38226;SDS011;24026;49.446;8.576;2023-05-29T07:02:37;143.07;;;130.48;;
38226;SDS011;24026;49.446;8.576;2023-05-29T07:04:57;144.23;;;131.43;;
38226;SDS011;24026;49.446;8.576;2023-05-29T07:07:18;144.27;;;131.63;;
38226;SDS011;24026;49.446;8.576;2023-05-29T07:09:38;143.07;;;130.38;;
38226;SDS011;24026;49.446;8.576;2023-05-29T07:11:59;142.95;;;130.32;;
38226;SDS011;24026;49.446;8.576;2023-05-29T07:14:19;144.38;;;131.73;;
38226;SDS011;24026;49.446;8.576;2023-05-29T07:16:40;145.02;;;132.23;;
38226;SDS011;24026;49.446;8.576;2023-05-29T07:19:00;144.48;;;131.82;;
38226;SDS011;24026;49.446;8.576;2023-05-29T07:21:20;144.45;;;131.80;;
38226;SDS011;24026;49.446;8.576;2023-05-29T07:23:41;144.10;;;131.45;;
38226;SDS011;24026;49.446;8.576;2023-05-29T07:26:02;144.38;;;131.68;;
38226;SDS011;24026;49.446;8.576;2023-05-29T07:28:22;144.80;;;132.10;;
38226;SDS011;24026;49.446;8.576;2023-05-29T07:30:43;143.55;;;130.95;;
38226;SDS011;24026;49.446;8.576;2023-05-29T07:33:03;144.73;;;132.05;;
38226;SDS011;24026;49.446;8.576;2023-05-29T07:35:24;143.70;;;131.10;;
38226;SDS011;24026;49.446;8.576;2023-05-29T07:37:44;144.38;;;131.68;;
38226;SDS011;24026;49.446;8.576;2023-05-29T07:40:04;143.85;;;131.15;;
38226;SDS011;24026;49.446;8.576;2023-05-29T07:42:25;145.25;;;132.35;;
38226;SDS011;24026;49.446;8.576;2023-05-29T07:44:46;145.00;;;132.30;;
38226;SDS011;24026;49.446;8.576;2023-05-29T07:47:08;145.30;;;132.57;;
38226;SDS011;24026;49.446;8.576;2023-05-29T07:49:29;145.52;;;132.73;;
38226;SDS011;24026;49.446;8.576;2023-05-29T07:51:50;144.40;;;131.75;;
38226;SDS011;24026;49.446;8.576;2023-05-29T07:54:10;144.63;;;131.93;;
38226;SDS011;24026;49.446;8.576;2023-05-29T07:56:31;144.60;;;131.85;;
38226;SDS011;24026;49.446;8.576;2023-05-29T07:58:53;145.18;;;132.48;;
38226;SDS011;24026;49.446;8.576;2023-05-29T08:01:14;145.15;;;132.43;;
38226;SDS011;24026;49.446;8.576;2023-05-29T08:03:35;145.45;;;132.82;;
38226;SDS011;24026;49.446;8.576;2023-05-29T08:05:55;145.80;;;133.00;;
38226;SDS011;24026;49.446;8.576;2023-05-29T08:08:16;145.57;;;132.80;;
38226;SDS011;24026;49.446;8.576;2023-05-29T08:10:36;147.50;;;134.63;;
38226;SDS011;24026;49.446;8.576;2023-05-29T08:12:57;143.40;;;130.70;;
38226;SDS011;24026;49.446;8.576;2023-05-29T08:15:18;142.27;;;129.77;;
38226;SDS011;24026;49.446;8.576;2023-05-29T08:17:38;143.52;;;131.02;;
38226;SDS011;24026;49.446;8.576;2023-05-29T08:19:59;143.55;;;130.95;;
38226;SDS011;24026;49.446;8.576;2023-05-29T08:22:19;143.15;;;130.65;;
38226;SDS011;24026;49.446;8.576;2023-05-29T08:24:41;143.48;;;130.93;;
38226;SDS011;24026;49.446;8.576;2023-05-29T08:27:01;142.98;;;130.50;;
38226;SDS011;24026;49.446;8.576;2023-05-29T08:29:22;145.25;;;132.50;;
38226;SDS011;24026;49.446;8.576;2023-05-29T08:31:43;143.52;;;131.02;;
38226;SDS011;24026;49.446;8.576;2023-05-29T08:34:03;143.40;;;130.80;;
38226;SDS011;24026;49.446;8.576;2023-05-29T08:36:24;143.48;;;130.88;;
38226;SDS011;24026;49.446;8.576;2023-05-29T08:38:45;143.73;;;131.20;;
38226;SDS011;24026;49.446;8.576;2023-05-29T08:41:05;144.50;;;131.88;;
38226;SDS011;24026;49.446;8.576;2023-05-29T08:43:31;143.88;;;131.38;;
38226;SDS011;24026;49.446;8.576;2023-05-29T08:45:53;145.35;;;132.45;;
38226;SDS011;24026;49.446;8.576;2023-05-29T08:48:14;144.93;;;132.40;;
38226;SDS011;24026;49.446;8.576;2023-05-29T08:50:42;144.95;;;132.25;;
38226;SDS011;24026;49.446;8.576;2023-05-29T08:53:07;142.90;;;130.43;;
38226;SDS011;24026;49.446;8.576;2023-05-29T08:55:27;144.88;;;132.38;;
38226;SDS011;24026;49.446;8.576;2023-05-29T08:57:48;144.75;;;132.15;;
38226;SDS011;24026;49.446;8.576;2023-05-29T09:00:11;145.65;;;133.05;;
38226;SDS011;24026;49.446;8.576;2023-05-29T09:02:36;144.27;;;131.68;;
38226;SDS011;24026;49.446;8.576;2023-05-29T09:04:57;144.82;;;132.27;;
38226;SDS011;24026;49.446;8.576;2023-05-29T09:07:18;144.80;;;132.25;;
38226;SDS011;24026;49.446;8.576;2023-05-29T09:09:39;145.05;;;132.40;;
38226;SDS011;24026;49.446;8.576;2023-05-29T09:11:59;144.05;;;131.57;;
38226;SDS011;24026;49.446;8.576;2023-05-29T09:14:33;144.02;;;131.45;;
38226;SDS011;24026;49.446;8.576;2023-05-29T09:16:57;145.05;;;132.48;;
38226;SDS011;24026;49.446;8.576;2023-05-29T09:19:17;144.95;;;132.40;;
38226;SDS011;24026;49.446;8.576;2023-05-29T09:21:38;145.52;;;132.85;;
38226;SDS011;24026;49.446;8.576;2023-05-29T09:24:04;146.38;;;133.82;;
38226;SDS011;24026;49.446;8.576;2023-05-29T09:26:28;144.48;;;131.95;;
38226;SDS011;24026;49.446;8.576;2023-05-29T09:28:50;148.43;;;135.70;;
38226;SDS011;24026;49.446;8.576;2023-05-29T09:31:16;146.20;;;133.60;;
38226;SDS011;24026;49.446;8.576;2023-05-29T09:33:48;145.45;;;132.90;;
38226;SDS011;24026;49.446;8.576;2023-05-29T09:36:11;145.48;;;132.93;;
38226;SDS011;24026;49.446;8.576;2023-05-29T09:38:40;145.52;;;132.93;;
38226;SDS011;24026;49.446;8.576;2023-05-29T09:41:06;147.02;;;134.38;;
38226;SDS011;24026;49.446;8.576;2023-05-29T09:43:26;148.15;;;135.48;;
38226;SDS011;24026;49.446;8.576;2023-05-29T09:45:47;147.35;;;134.63;;
38226;SDS011;24026;49.446;8.576;2023-05-29T09:48:21;146.57;;;133.95;;
38226;SDS011;24026;49.446;8.576;2023-05-29T09:50:43;146.65;;;133.85;;
38226;SDS011;24026;49.446;8.576;2023-05-29T09:55:42;147.57;;;134.93;;
38226;SDS011;24026;49.446;8.576;2023-05-29T09:58:03;148.55;;;135.82;;
38226;SDS011;24026;49.446;8.576;2023-05-29T10:00:26;147.30;;;134.63;;
38226;SDS011;24026;49.446;8.576;2023-05-29T10:02:49;146.10;;;133.60;;
38226;SDS011;24026;49.446;8.576;2023-05-29T10:05:10;148.02;;;135.27;;
38226;SDS011;24026;49.446;8.576;2023-05-29T10:07:36;147.40;;;134.57;;
38226;SDS011;24026;49.446;8.576;2023-05-29T10:10:01;146.52;;;133.93;;
38226;SDS011;24026;49.446;8.576;2023-05-29T10:12:23;147.30;;;134.65;;
38226;SDS011;24026;49.446;8.576;2023-05-29T10:14:47;149.85;;;137.00;;
38226;SDS011;24026;49.446;8.576;2023-05-29T10:17:09;147.52;;;134.85;;
38226;SDS011;24026;49.446;8.576;2023-05-29T10:19:35;149.63;;;136.82;;
38226;SDS011;24026;49.446;8.576;2023-05-29T10:21:57;149.43;;;136.73;;
38226;SDS011;24026;49.446;8.576;2023-05-29T10:24:21;148.57;;;135.88;;
38226;SDS011;24026;49.446;8.576;2023-05-29T10:26:42;148.75;;;135.95;;
38226;SDS011;24026;49.446;8.576;2023-05-29T10:37:29;150.35;;;137.55;;
38226;SDS011;24026;49.446;8.576;2023-05-29T10:40:03;150.77;;;137.93;;
38226;SDS011;24026;49.446;8.576;2023-05-29T10:42:59;150.27;;;137.50;;
38226;SDS011;24026;49.446;8.576;2023-05-29T10:47:52;149.02;;;136.32;;
38226;SDS011;24026;49.446;8.576;2023-05-29T10:50:13;150.38;;;137.57;;
38226;SDS011;24026;49.446;8.576;2023-05-29T10:52:33;150.05;;;137.40;;
38226;SDS011;24026;49.446;8.576;2023-05-29T10:54:54;151.05;;;138.25;;
38226;SDS011;24026;49.446;8.576;2023-05-29T10:57:14;152.38;;;139.48;;
38226;SDS011;24026;49.446;8.576;2023-05-29T10:59:35;149.60;;;136.93;;
38226;SDS011;24026;49.446;8.576;2023-05-29T11:01:56;148.90;;;136.25;;
38226;SDS011;24026;49.446;8.576;2023-05-29T11:06:40;149.55;;;136.77;;
38226;SDS011;24026;49.446;8.576;2023-05-29T11:09:00;148.45;;;135.85;;
38226;SDS011;24026;49.446;8.576;2023-05-29T11:13:51;149.03;;;136.23;;
38226;SDS011;24026;49.446;8.576;2023-05-29T11:18:48;149.73;;;136.98;;
38226;SDS011;24026;49.446;8.576;2023-05-29T11:23:44;150.13;;;137.45;;
38226;SDS011;24026;49.446;8.576;2023-05-29T11:26:07;149.32;;;136.73;;
38226;SDS011;24026;49.446;8.576;2023-05-29T11:28:27;150.25;;;137.63;;
38226;SDS011;24026;49.446;8.576;2023-05-29T11:30:48;149.88;;;137.07;;
38226;SDS011;24026;49.446;8.576;2023-05-29T11:33:08;150.75;;;137.95;;
38226;SDS011;24026;49.446;8.576;2023-05-29T11:35:33;150.83;;;138.10;;
38226;SDS011;24026;49.446;8.576;2023-05-29T11:37:54;153.10;;;140.15;;
38226;SDS011;24026;49.446;8.576;2023-05-29T11:40:17;151.82;;;138.95;;
38226;SDS011;24026;49.446;8.576;2023-05-29T11:42:45;151.93;;;139.23;;
38226;SDS011;24026;49.446;8.576;2023-05-29T11:47:32;151.88;;;139.00;;
38226;SDS011;24026;49.446;8.576;2023-05-29T11:49:52;152.15;;;139.45;;
38226;SDS011;24026;49.446;8.576;2023-05-29T11:52:13;150.25;;;137.52;;
38226;SDS011;24026;49.446;8.576;2023-05-29T11:54:34;150.23;;;137.57;;
38226;SDS011;24026;49.446;8.576;2023-05-29T11:56:54;151.13;;;138.40;;
38226;SDS011;24026;49.446;8.576;2023-05-29T11:59:15;151.05;;;138.35;;
38226;SDS011;24026;49.446;8.576;2023-05-29T12:01:35;151.05;;;138.27;;
38226;SDS011;24026;49.446;8.576;2023-05-29T12:03:56;149.82;;;137.15;;
38226;SDS011;24026;49.446;8.576;2023-05-29T12:06:16;151.38;;;138.48;;
38226;SDS011;24026;49.446;8.576;2023-05-29T12:08:51;153.82;;;140.93;;
38226;SDS011;24026;49.446;8.576;2023-05-29T12:11:12;153.18;;;140.38;;
38226;SDS011;24026;49.446;8.576;2023-05-29T12:13:32;153.00;;;140.20;;
38226;SDS011;24026;49.446;8.576;2023-05-29T12:15:54;152.00;;;139.23;;
38226;SDS011;24026;49.446;8.576;2023-05-29T12:18:17;152.15;;;139.35;;
38226;SDS011;24026;49.446;8.576;2023-05-29T12:20:38;151.32;;;138.52;;
38226;SDS011;24026;49.446;8.576;2023-05-29T12:22:59;151.88;;;139.18;;
38226;SDS011;24026;49.446;8.576;2023-05-29T12:25:21;151.73;;;138.73;;
38226;SDS011;24026;49.446;8.576;2023-05-29T12:27:42;151.75;;;138.95;;
38226;SDS011;24026;49.446;8.576;2023-05-29T12:30:06;153.00;;;140.10;;
38226;SDS011;24026;49.446;8.576;2023-05-29T12:32:41;153.80;;;140.88;;
38226;SDS011;24026;49.446;8.576;2023-05-29T12:40:20;153.52;;;140.63;;
38226;SDS011;24026;49.446;8.576;2023-05-29T12:42:41;153.50;;;140.60;;
38226;SDS011;24026;49.446;8.576;2023-05-29T12:45:02;152.23;;;139.50;;
38226;SDS011;24026;49.446;8.576;2023-05-29T12:47:26;153.98;;;141.07;;
38226;SDS011;24026;49.446;8.576;2023-05-29T12:49:47;154.98;;;142.10;;
38226;SDS011;24026;49.446;8.576;2023-05-29T12:52:08;152.90;;;140.10;;
38226;SDS011;24026;49.446;8.576;2023-05-29T12:54:31;153.43;;;140.55;;
38226;SDS011;24026;49.446;8.576;2023-05-29T12:56:51;153.32;;;140.50;;
38226;SDS011;24026;49.446;8.576;2023-05-29T12:59:12;152.07;;;139.38;;
38226;SDS011;24026;49.446;8.576;2023-05-29T13:01:32;153.43;;;140.73;;
38226;SDS011;24026;49.446;8.576;2023-05-29T13:03:53;154.77;;;141.95;;
38226;SDS011;24026;49.446;8.576;2023-05-29T13:06:13;152.90;;;140.23;;
38226;SDS011;24026;49.446;8.576;2023-05-29T13:08:34;153.13;;;140.38;;
38226;SDS011;24026;49.446;8.576;2023-05-29T13:10:54;152.90;;;140.20;;
38226;SDS011;24026;49.446;8.576;2023-05-29T13:13:15;154.77;;;141.88;;
38226;SDS011;24026;49.446;8.576;2023-05-29T13:15:35;153.23;;;140.45;;
38226;SDS011;24026;49.446;8.576;2023-05-29T13:17:55;154.95;;;141.98;;
38226;SDS011;24026;49.446;8.576;2023-05-29T13:20:16;154.00;;;141.20;;
38226;SDS011;24026;49.446;8.576;2023-05-29T13:22:37;154.27;;;141.40;;
38226;SDS011;24026;49.446;8.576;2023-05-29T13:24:59;154.50;;;141.63;;
38226;SDS011;24026;49.446;8.576;2023-05-29T13:27:19;151.77;;;139.07;;
38226;SDS011;24026;49.446;8.576;2023-05-29T13:29:40;154.30;;;141.43;;
38226;SDS011;24026;49.446;8.576;2023-05-29T13:32:03;155.73;;;142.75;;
38226;SDS011;24026;49.446;8.576;2023-05-29T13:34:23;153.35;;;140.57;;
38226;SDS011;24026;49.446;8.576;2023-05-29T13:36:48;152.25;;;139.48;;
38226;SDS011;24026;49.446;8.576;2023-05-29T13:39:08;154.00;;;141.20;;
38226;SDS011;24026;49.446;8.576;2023-05-29T13:41:30;155.20;;;142.40;;
38226;SDS011;24026;49.446;8.576;2023-05-29T13:43:50;155.45;;;142.65;;
38226;SDS011;24026;49.446;8.576;2023-05-29T13:46:11;153.57;;;140.82;;
38226;SDS011;24026;49.446;8.576;2023-05-29T13:48:32;153.77;;;141.00;;
38226;SDS011;24026;49.446;8.576;2023-05-29T13:50:53;154.88;;;141.93;;
38226;SDS011;24026;49.446;8.576;2023-05-29T13:53:14;154.85;;;142.00;;
38226;SDS011;24026;49.446;8.576;2023-05-29T13:55:35;153.77;;;140.98;;
38226;SDS011;24026;49.446;8.576;2023-05-29T13:57:56;154.75;;;141.88;;
38226;SDS011;24026;49.446;8.576;2023-05-29T14:00:18;153.75;;;140.93;;
38226;SDS011;24026;49.446;8.576;2023-05-29T14:02:38;153.60;;;140.80;;
38226;SDS011;24026;49.446;8.576;2023-05-29T14:04:59;154.32;;;141.52;;